Time;durP1;ratioP1;P1;durP2;ratioP2;P2;SDS_P1;SDS_P2;PMS_P1;PMS_P2;Temp;Humidity;BMP_temperature;BMP_pressure;BME280_temperature;BME280_humidity;BME280_pressure;Samples;Min_cycle;Max_cycle;Signal;HPM_P1;HPM_P2
2021/08/11 00:00:11;;;;;;;;;;;18.50;99.90;;;;;;5036146;28;19935;-66
2021/08/11 00:02:37;;;;;;;;;;;18.40;99.90;;;;;;5033116;28;19924;-66
2021/08/11 00:05:02;;;;;;;;;;;18.40;99.90;;;;;;5032885;28;19909;-66
2021/08/11 00:07:28;;;;;;;;;;;18.30;99.90;;;;;;5032834;28;19916;-65
2021/08/11 00:09:54;;;;;;;;;;;18.30;99.90;;;;;;5031823;28;19932;-66
2021/08/11 00:12:19;;;;;;;;;;;18.30;99.90;;;;;;5032287;28;20052;-66
2021/08/11 00:14:45;;;;;;;;;;;18.20;1.00;;;;;;5033115;28;20385;-65
2021/08/11 00:17:10;;;;;;;;;;;18.20;1.00;;;;;;5031595;28;19920;-66
2021/08/11 00:19:36;;;;;;;;;;;18.10;1.00;;;;;;5031493;28;20394;-66
2021/08/11 00:22:01;;;;;;;;;;;18.10;1.00;;;;;;5031690;28;19909;-65
2021/08/11 00:24:27;;;;;;;;;;;18.00;1.00;;;;;;5030918;28;19913;-65
2021/08/11 00:26:52;;;;;;;;;;;18.00;1.00;;;;;;5032070;28;19913;-65
2021/08/11 00:29:18;;;;;;;;;;;18.00;1.00;;;;;;5054688;22;19936;-64
2021/08/11 00:31:44;;;;;;;;;;;18.00;1.00;;;;;;5034663;28;19925;-63
2021/08/11 00:34:09;;;;;;;;;;;18.00;1.00;;;;;;5033227;28;19916;-63
2021/08/11 00:36:35;;;;;;;;;;;18.00;1.00;;;;;;5034333;28;20020;-62
2021/08/11 00:39:00;;;;;;;;;;;18.00;1.00;;;;;;5033245;28;19951;-63
2021/08/11 00:41:26;;;;;;;;;;;17.90;1.00;;;;;;5033776;28;19978;-63
2021/08/11 00:43:53;;;;;;;;;;;17.90;1.00;;;;;;5033483;28;19963;-64
2021/08/11 00:46:19;;;;;;;;;;;17.90;1.00;;;;;;5033976;28;19909;-63
2021/08/11 00:48:45;;;;;;;;;;;17.90;1.00;;;;;;5032788;28;19909;-62
2021/08/11 00:51:10;;;;;;;;;;;17.90;1.00;;;;;;5033507;28;19909;-63
2021/08/11 00:53:38;;;;;;;;;;;17.80;1.00;;;;;;5033634;28;20341;-63
2021/08/11 00:56:03;;;;;;;;;;;17.80;1.00;;;;;;5034348;28;20406;-63
2021/08/11 00:58:29;;;;;;;;;;;17.80;1.00;;;;;;5033320;28;19967;-63
2021/08/11 01:00:56;;;;;;;;;;;17.80;1.00;;;;;;5032651;28;19909;-63
2021/08/11 01:03:22;;;;;;;;;;;17.80;1.00;;;;;;5032862;28;20048;-63
2021/08/11 01:05:49;;;;;;;;;;;17.80;1.00;;;;;;5031994;28;19960;-63
2021/08/11 01:08:15;;;;;;;;;;;17.90;1.00;;;;;;5031749;28;19950;-63
2021/08/11 01:10:41;;;;;;;;;;;17.90;1.00;;;;;;5032338;28;19913;-63
2021/08/11 01:13:07;;;;;;;;;;;18.00;1.00;;;;;;5031848;28;19910;-62
2021/08/11 01:15:33;;;;;;;;;;;18.00;1.00;;;;;;5032861;28;19909;-63
2021/08/11 01:17:58;;;;;;;;;;;18.00;1.00;;;;;;5031738;28;19923;-62
2021/08/11 01:20:24;;;;;;;;;;;18.10;1.00;;;;;;5031977;28;19913;-62
2021/08/11 01:22:52;;;;;;;;;;;18.10;1.00;;;;;;5031688;28;19910;-62
2021/08/11 01:25:22;;;;;;;;;;;18.10;1.00;;;;;;5033151;28;19913;-62
2021/08/11 01:27:50;;;;;;;;;;;18.10;1.00;;;;;;5030949;28;19960;-63
2021/08/11 01:30:26;;;;;;;;;;;18.10;1.00;;;;;;5033075;28;19917;-63
2021/08/11 01:33:02;;;;;;;;;;;18.10;1.00;;;;;;5034691;28;20350;-63
2021/08/11 01:35:33;;;;;;;;;;;18.10;1.00;;;;;;5034345;28;19913;-62
2021/08/11 01:37:59;;;;;;;;;;;18.10;1.00;;;;;;5034253;28;19913;-63
2021/08/11 01:40:31;;;;;;;;;;;18.10;1.00;;;;;;5032764;28;19915;-62
2021/08/11 01:42:58;;;;;;;;;;;18.20;99.90;;;;;;5033065;28;20284;-63
2021/08/11 01:45:40;;;;;;;;;;;18.20;99.90;;;;;;5035349;28;20011;-64
2021/08/11 01:48:08;;;;;;;;;;;18.20;99.90;;;;;;5033251;28;20008;-63
2021/08/11 01:50:36;;;;;;;;;;;18.10;99.90;;;;;;5034057;28;19919;-64
2021/08/11 01:53:01;;;;;;;;;;;18.10;99.90;;;;;;5034100;28;20008;-63
2021/08/11 01:55:27;;;;;;;;;;;18.10;99.90;;;;;;5033186;28;19917;-64
2021/08/11 01:57:54;;;;;;;;;;;18.10;99.90;;;;;;5032121;28;19939;-63
2021/08/11 02:00:21;;;;;;;;;;;18.10;99.90;;;;;;5034200;28;19956;-64
2021/08/11 02:02:47;;;;;;;;;;;18.10;99.90;;;;;;5033247;28;19916;-63
2021/08/11 02:05:13;;;;;;;;;;;18.10;99.90;;;;;;5034903;28;19909;-64
2021/08/11 02:07:40;;;;;;;;;;;18.10;99.90;;;;;;5033247;28;19955;-64
2021/08/11 02:10:06;;;;;;;;;;;18.00;99.90;;;;;;5033706;28;19909;-64
2021/08/11 02:12:31;;;;;;;;;;;18.00;99.90;;;;;;5033085;28;19920;-63
2021/08/11 02:14:57;;;;;;;;;;;17.90;99.90;;;;;;5033368;28;19921;-62
2021/08/11 02:17:23;;;;;;;;;;;17.80;1.00;;;;;;5036516;28;19917;-63
2021/08/11 02:19:48;;;;;;;;;;;17.70;1.00;;;;;;5039196;28;19916;-63
2021/08/11 02:22:14;;;;;;;;;;;17.60;1.00;;;;;;5039003;28;20040;-63
2021/08/11 02:24:40;;;;;;;;;;;17.50;1.00;;;;;;5039304;28;19939;-64
2021/08/11 02:27:11;;;;;;;;;;;17.50;1.00;;;;;;5039419;28;20008;-63
2021/08/11 02:29:41;;;;;;;;;;;17.40;1.00;;;;;;5036210;28;19916;-63
2021/08/11 02:32:29;;;;;;;;;;;17.40;1.00;;;;;;5040288;28;20389;-63
2021/08/11 02:34:55;;;;;;;;;;;17.30;1.00;;;;;;5034208;28;19913;-63
2021/08/11 02:37:33;;;;;;;;;;;17.30;1.00;;;;;;5035166;28;20361;-65
2021/08/11 02:40:05;;;;;;;;;;;17.30;1.00;;;;;;5036176;28;20342;-63
2021/08/11 02:42:33;;;;;;;;;;;17.30;1.00;;;;;;5035988;28;19913;-63
2021/08/11 02:45:01;;;;;;;;;;;17.20;1.00;;;;;;5037277;28;19917;-63
2021/08/11 02:47:27;;;;;;;;;;;17.10;1.00;;;;;;5036598;28;20285;-63
2021/08/11 02:49:53;;;;;;;;;;;17.10;1.00;;;;;;5037433;28;20052;-63
2021/08/11 02:52:19;;;;;;;;;;;17.00;1.00;;;;;;5036238;28;20055;-64
2021/08/11 02:54:45;;;;;;;;;;;17.00;1.00;;;;;;5035443;28;19964;-64
2021/08/11 02:57:11;;;;;;;;;;;17.00;1.00;;;;;;5035026;28;19913;-63
2021/08/11 02:59:38;;;;;;;;;;;16.90;1.00;;;;;;5034421;28;19915;-63
2021/08/11 03:02:03;;;;;;;;;;;16.90;1.00;;;;;;5036329;28;20003;-63
2021/08/11 03:04:29;;;;;;;;;;;16.80;1.00;;;;;;5035990;28;19909;-63
2021/08/11 03:06:55;;;;;;;;;;;16.80;1.00;;;;;;5035280;28;20016;-63
2021/08/11 03:09:21;;;;;;;;;;;16.80;1.00;;;;;;5034711;28;20000;-62
2021/08/11 03:11:47;;;;;;;;;;;16.70;1.00;;;;;;5036700;28;19910;-63
2021/08/11 03:14:16;;;;;;;;;;;16.70;1.00;;;;;;5036470;28;19909;-64
2021/08/11 03:16:42;;;;;;;;;;;16.70;1.00;;;;;;5037218;28;19909;-63
2021/08/11 03:19:08;;;;;;;;;;;16.70;1.00;;;;;;5036007;28;20028;-63
2021/08/11 03:21:34;;;;;;;;;;;16.60;1.00;;;;;;5038559;28;19909;-63
2021/08/11 03:24:00;;;;;;;;;;;16.60;1.00;;;;;;5038024;28;20016;-63
2021/08/11 03:26:26;;;;;;;;;;;16.60;1.00;;;;;;5040104;28;20539;-64
2021/08/11 03:28:53;;;;;;;;;;;16.50;1.00;;;;;;5038836;28;20362;-62
2021/08/11 03:31:18;;;;;;;;;;;16.50;1.00;;;;;;5034700;28;19917;-64
2021/08/11 03:33:44;;;;;;;;;;;16.50;1.00;;;;;;5035593;28;19909;-63
2021/08/11 03:36:09;;;;;;;;;;;16.50;1.00;;;;;;5034900;28;19974;-63
2021/08/11 03:38:35;;;;;;;;;;;16.50;1.00;;;;;;5034824;28;19921;-63
2021/08/11 03:41:00;;;;;;;;;;;16.60;1.00;;;;;;5035414;28;19996;-63
2021/08/11 03:43:26;;;;;;;;;;;16.60;1.00;;;;;;5035843;28;19917;-63
2021/08/11 03:45:51;;;;;;;;;;;16.50;1.00;;;;;;5038506;28;19932;-64
2021/08/11 03:48:17;;;;;;;;;;;16.50;1.00;;;;;;5036852;28;19916;-64
2021/08/11 03:50:42;;;;;;;;;;;16.50;1.00;;;;;;5034719;28;20382;-63
2021/08/11 03:53:09;;;;;;;;;;;16.60;1.00;;;;;;5035537;28;19920;-64
2021/08/11 03:55:35;;;;;;;;;;;16.60;1.00;;;;;;5037640;28;19916;-64
2021/08/11 03:58:00;;;;;;;;;;;16.60;1.00;;;;;;5034958;28;19913;-63
2021/08/11 04:00:26;;;;;;;;;;;16.60;1.00;;;;;;5035015;28;19909;-64
2021/08/11 04:02:52;;;;;;;;;;;16.60;1.00;;;;;;5034458;28;20336;-63
2021/08/11 04:05:17;;;;;;;;;;;16.50;1.00;;;;;;5036097;28;19960;-64
2021/08/11 04:07:43;;;;;;;;;;;16.50;1.00;;;;;;5032813;28;19955;-63
2021/08/11 04:10:09;;;;;;;;;;;16.50;1.00;;;;;;5034619;28;20528;-63
2021/08/11 04:12:35;;;;;;;;;;;16.50;1.00;;;;;;5034239;28;20282;-64
2021/08/11 04:15:01;;;;;;;;;;;16.40;1.00;;;;;;5035764;28;19935;-63
2021/08/11 04:17:26;;;;;;;;;;;16.40;1.00;;;;;;5033441;28;20031;-64
2021/08/11 04:19:52;;;;;;;;;;;16.40;1.00;;;;;;5034598;28;19913;-63
2021/08/11 04:22:17;;;;;;;;;;;16.40;1.00;;;;;;5033856;28;20393;-63
2021/08/11 04:24:43;;;;;;;;;;;16.40;1.00;;;;;;5034140;28;20393;-63
2021/08/11 04:27:08;;;;;;;;;;;16.40;1.00;;;;;;5033977;28;20277;-64
2021/08/11 04:29:34;;;;;;;;;;;16.40;1.00;;;;;;5032521;28;20008;-64
2021/08/11 04:31:59;;;;;;;;;;;16.40;1.00;;;;;;5034137;28;19916;-63
2021/08/11 04:34:25;;;;;;;;;;;16.50;1.00;;;;;;5034093;28;20396;-64
2021/08/11 04:36:50;;;;;;;;;;;16.50;1.00;;;;;;5034329;28;19943;-63
2021/08/11 04:39:16;;;;;;;;;;;16.60;1.00;;;;;;5033020;28;19909;-64
2021/08/11 04:41:42;;;;;;;;;;;16.60;1.00;;;;;;5033950;28;20374;-64
2021/08/11 04:44:11;;;;;;;;;;;16.60;1.00;;;;;;5034036;28;19913;-65
2021/08/11 04:46:38;;;;;;;;;;;16.70;1.00;;;;;;5033499;28;19963;-64
2021/08/11 04:49:03;;;;;;;;;;;16.70;1.00;;;;;;5032803;28;20266;-64
2021/08/11 04:51:29;;;;;;;;;;;16.80;1.00;;;;;;5033076;28;19955;-64
2021/08/11 04:53:54;;;;;;;;;;;16.80;1.00;;;;;;5032902;28;19920;-65
2021/08/11 04:56:20;;;;;;;;;;;16.80;1.00;;;;;;5033354;28;19920;-64
2021/08/11 04:58:45;;;;;;;;;;;16.90;1.00;;;;;;5031577;28;19936;-64
2021/08/11 05:01:11;;;;;;;;;;;17.00;1.00;;;;;;5031739;28;19909;-64
2021/08/11 05:03:36;;;;;;;;;;;17.10;1.00;;;;;;5032000;28;19917;-63
2021/08/11 05:06:06;;;;;;;;;;;17.10;1.00;;;;;;5032006;28;20362;-64
2021/08/11 05:08:32;;;;;;;;;;;17.20;1.00;;;;;;5032151;28;20297;-64
2021/08/11 05:10:57;;;;;;;;;;;17.30;1.00;;;;;;5033238;28;19997;-64
2021/08/11 05:13:23;;;;;;;;;;;17.50;1.00;;;;;;5032447;28;20383;-64
2021/08/11 05:15:48;;;;;;;;;;;17.50;1.00;;;;;;5031618;28;20324;-64
2021/08/11 05:18:14;;;;;;;;;;;17.70;1.00;;;;;;5031735;28;19999;-64
2021/08/11 05:20:39;;;;;;;;;;;18.00;1.00;;;;;;5033064;28;19909;-65
2021/08/11 05:23:06;;;;;;;;;;;18.70;99.90;;;;;;5032697;28;19916;-64
2021/08/11 05:25:31;;;;;;;;;;;19.70;35.10;;;;;;5034052;28;19913;-65
2021/08/11 05:27:57;;;;;;;;;;;20.70;1.00;;;;;;5031871;28;20428;-65
2021/08/11 05:30:22;;;;;;;;;;;21.80;1.00;;;;;;5033196;28;19921;-64
2021/08/11 05:32:48;;;;;;;;;;;22.70;1.00;;;;;;5032580;28;19914;-65
2021/08/11 05:35:13;;;;;;;;;;;23.50;1.00;;;;;;5033176;28;19916;-64
2021/08/11 05:37:40;;;;;;;;;;;24.20;1.00;;;;;;5033475;28;20126;-64
2021/08/11 05:40:06;;;;;;;;;;;25.00;99.90;;;;;;5033338;28;19913;-64
2021/08/11 05:42:31;;;;;;;;;;;25.50;99.90;;;;;;5031923;28;19936;-66
2021/08/11 05:44:57;;;;;;;;;;;25.70;99.90;;;;;;5031706;28;19924;-64
2021/08/11 05:47:22;;;;;;;;;;;26.30;99.90;;;;;;5031768;28;19916;-64
2021/08/11 05:49:48;;;;;;;;;;;26.80;99.90;;;;;;5032712;28;19916;-65
2021/08/11 05:52:14;;;;;;;;;;;27.30;99.90;;;;;;5031980;28;19998;-65
2021/08/11 05:54:39;;;;;;;;;;;27.90;99.90;;;;;;5033953;28;19917;-64
2021/08/11 05:57:05;;;;;;;;;;;28.20;99.90;;;;;;5033868;28;19936;-65
2021/08/11 05:59:31;;;;;;;;;;;28.60;99.90;;;;;;5032167;28;20381;-64
2021/08/11 06:01:56;;;;;;;;;;;29.20;99.90;;;;;;5034087;28;19909;-64
2021/08/11 06:04:24;;;;;;;;;;;29.40;99.90;;;;;;5031856;28;20005;-65
2021/08/11 06:06:52;;;;;;;;;;;30.00;99.90;;;;;;5033001;28;20400;-65
2021/08/11 06:09:18;;;;;;;;;;;30.60;99.90;;;;;;5031577;28;20138;-65
2021/08/11 06:11:44;;;;;;;;;;;31.00;99.90;;;;;;5032557;28;19909;-65
2021/08/11 06:14:09;;;;;;;;;;;31.30;99.90;;;;;;5032355;28;19909;-65
2021/08/11 06:16:36;;;;;;;;;;;31.70;99.90;;;;;;5032095;28;19913;-65
2021/08/11 06:19:02;;;;;;;;;;;32.00;99.90;;;;;;5031155;28;20281;-65
2021/08/11 06:21:28;;;;;;;;;;;32.40;99.90;;;;;;5031026;28;19915;-65
2021/08/11 06:23:53;;;;;;;;;;;33.00;99.90;;;;;;5029426;28;19909;-65
2021/08/11 06:26:20;;;;;;;;;;;33.40;99.90;;;;;;5031586;28;20007;-65
2021/08/11 06:28:45;;;;;;;;;;;33.70;99.90;;;;;;5030260;28;19929;-65
2021/08/11 06:31:13;;;;;;;;;;;34.10;99.90;;;;;;5031888;28;19924;-65
2021/08/11 06:33:39;;;;;;;;;;;34.60;99.90;;;;;;5031113;28;19967;-64
2021/08/11 06:36:04;;;;;;;;;;;34.90;99.90;;;;;;5031576;28;19910;-65
2021/08/11 06:38:30;;;;;;;;;;;35.10;99.90;;;;;;5030516;28;20347;-65
2021/08/11 06:40:55;;;;;;;;;;;35.70;99.90;;;;;;5031781;28;19909;-65
2021/08/11 06:43:21;;;;;;;;;;;36.40;99.90;;;;;;5030885;28;19909;-64
2021/08/11 06:45:46;;;;;;;;;;;36.70;99.90;;;;;;5031851;28;20246;-65
2021/08/11 06:48:12;;;;;;;;;;;37.10;99.90;;;;;;5030745;28;20000;-64
2021/08/11 06:50:38;;;;;;;;;;;37.30;99.90;;;;;;5030795;28;19909;-65
2021/08/11 06:53:03;;;;;;;;;;;37.60;99.90;;;;;;5031530;28;20320;-65
2021/08/11 06:55:29;;;;;;;;;;;37.70;99.90;;;;;;5031032;28;20018;-63
2021/08/11 06:57:54;;;;;;;;;;;37.80;99.90;;;;;;5030552;28;19919;-63
2021/08/11 07:00:20;;;;;;;;;;;38.00;99.90;;;;;;5030863;28;19913;-64
2021/08/11 07:02:46;;;;;;;;;;;38.40;99.90;;;;;;5032215;28;20323;-64
2021/08/11 07:05:12;;;;;;;;;;;38.70;99.90;;;;;;5034810;28;19910;-64
2021/08/11 07:07:37;;;;;;;;;;;38.50;99.90;;;;;;5033585;28;19920;-63
2021/08/11 07:10:05;;;;;;;;;;;37.80;99.90;;;;;;5034703;28;19909;-62
2021/08/11 07:12:31;;;;;;;;;;;37.90;99.90;;;;;;5034445;28;19941;-64
2021/08/11 07:14:56;;;;;;;;;;;38.60;99.90;;;;;;5035104;28;20365;-64
2021/08/11 07:17:22;;;;;;;;;;;39.30;99.90;;;;;;5034802;28;19913;-64
2021/08/11 07:19:47;;;;;;;;;;;39.70;99.90;;;;;;5035430;28;19917;-63
2021/08/11 07:22:13;;;;;;;;;;;39.40;99.30;;;;;;5034590;28;19936;-64
2021/08/11 07:24:38;;;;;;;;;;;39.60;96.90;;;;;;5033967;28;19920;-64
2021/08/11 07:27:04;;;;;;;;;;;40.20;95.20;;;;;;5036074;28;20362;-64
2021/08/11 07:29:30;;;;;;;;;;;40.50;92.00;;;;;;5032897;28;19917;-64
2021/08/11 07:31:55;;;;;;;;;;;40.50;88.80;;;;;;5034122;28;19913;-64
2021/08/11 07:34:21;;;;;;;;;;;41.50;85.80;;;;;;5033879;28;19909;-64
2021/08/11 07:36:46;;;;;;;;;;;41.80;80.40;;;;;;5034241;28;19913;-64
2021/08/11 07:39:12;;;;;;;;;;;42.10;74.80;;;;;;5033622;28;19909;-64
2021/08/11 07:41:38;;;;;;;;;;;42.50;69.50;;;;;;5034435;28;19913;-64
2021/08/11 07:44:03;;;;;;;;;;;43.00;65.20;;;;;;5034897;28;19952;-64
2021/08/11 07:46:29;;;;;;;;;;;43.40;59.50;;;;;;5034929;28;19914;-64
2021/08/11 07:48:54;;;;;;;;;;;43.70;55.70;;;;;;5034178;28;20003;-64
2021/08/11 07:51:20;;;;;;;;;;;44.40;52.40;;;;;;5034310;28;19909;-64
2021/08/11 07:53:46;;;;;;;;;;;44.30;47.60;;;;;;5033435;28;19920;-64
2021/08/11 07:56:11;;;;;;;;;;;44.00;43.10;;;;;;5033653;28;19909;-64
2021/08/11 07:58:37;;;;;;;;;;;41.10;34.80;;;;;;5033726;28;19971;-63
2021/08/11 08:01:02;;;;;;;;;;;41.80;37.30;;;;;;5033392;28;20259;-63
2021/08/11 08:03:28;;;;;;;;;;;42.20;34.60;;;;;;5034199;28;19916;-63
2021/08/11 08:05:53;;;;;;;;;;;42.30;32.90;;;;;;5034181;28;20039;-63
2021/08/11 08:08:19;;;;;;;;;;;42.90;31.80;;;;;;5033167;28;20042;-65
2021/08/11 08:10:44;;;;;;;;;;;43.70;29.80;;;;;;5032767;28;19909;-65
2021/08/11 08:13:10;;;;;;;;;;;44.00;28.90;;;;;;5032442;28;19963;-65
2021/08/11 08:15:35;;;;;;;;;;;43.70;26.40;;;;;;5032571;28;19913;-65
2021/08/11 08:18:02;;;;;;;;;;;43.10;24.40;;;;;;5032502;28;19923;-64
2021/08/11 08:20:30;;;;;;;;;;;42.90;22.50;;;;;;5033884;28;19916;-63
2021/08/11 08:22:56;;;;;;;;;;;40.80;19.10;;;;;;5033630;28;19909;-63
2021/08/11 08:25:21;;;;;;;;;;;40.20;18.60;;;;;;5033544;28;19995;-64
2021/08/11 08:27:50;;;;;;;;;;;40.00;18.80;;;;;;5032147;28;19921;-65
2021/08/11 08:30:17;;;;;;;;;;;41.10;20.20;;;;;;5032262;28;20365;-64
2021/08/11 08:32:43;;;;;;;;;;;39.90;18.70;;;;;;5033178;28;19909;-64
2021/08/11 08:35:08;;;;;;;;;;;39.60;18.70;;;;;;5032815;28;20011;-64
2021/08/11 08:37:38;;;;;;;;;;;39.50;19.00;;;;;;5031772;28;19936;-65
2021/08/11 08:40:08;;;;;;;;;;;40.80;21.80;;;;;;5032485;28;20387;-65
2021/08/11 08:42:33;;;;;;;;;;;42.50;22.10;;;;;;5031887;28;19909;-65
2021/08/11 08:45:00;;;;;;;;;;;43.60;21.50;;;;;;5032790;28;20015;-63
2021/08/11 08:47:26;;;;;;;;;;;44.00;20.00;;;;;;5031670;28;19952;-65
2021/08/11 08:49:52;;;;;;;;;;;44.00;18.60;;;;;;5032139;28;20000;-65
2021/08/11 08:52:18;;;;;;;;;;;44.00;16.60;;;;;;5032169;28;19963;-65
2021/08/11 08:54:45;;;;;;;;;;;43.60;14.10;;;;;;5031924;28;19909;-64
2021/08/11 08:57:10;;;;;;;;;;;43.30;12.00;;;;;;5032138;28;19920;-65
2021/08/11 08:59:39;;;;;;;;;;;44.50;12.30;;;;;;5031480;28;19924;-65
2021/08/11 09:02:07;;;;;;;;;;;45.70;12.20;;;;;;5031944;28;19917;-65
2021/08/11 09:04:32;;;;;;;;;;;44.10;7.80;;;;;;5031588;28;19932;-65
2021/08/11 09:06:58;;;;;;;;;;;44.20;6.70;;;;;;5032254;28;19912;-65
2021/08/11 09:09:32;;;;;;;;;;;41.90;4.30;;;;;;5031183;28;19963;-65
2021/08/11 09:12:07;;;;;;;;;;;41.80;5.10;;;;;;5031958;28;20338;-65
2021/08/11 09:14:36;;;;;;;;;;;38.90;1.60;;;;;;5031908;28;20274;-65
2021/08/11 09:17:01;;;;;;;;;;;39.60;3.60;;;;;;5031628;28;19909;-65
2021/08/11 09:19:47;;;;;;;;;;;41.20;6.30;;;;;;5030875;28;20039;-65
2021/08/11 09:22:15;;;;;;;;;;;41.60;6.70;;;;;;5030541;28;19909;-64
2021/08/11 09:24:41;;;;;;;;;;;43.10;8.40;;;;;;5031084;28;20326;-65
2021/08/11 09:27:13;;;;;;;;;;;44.10;8.30;;;;;;5030890;28;20319;-65
2021/08/11 09:29:59;;;;;;;;;;;41.80;3.60;;;;;;5029213;28;19917;-65
2021/08/11 09:32:25;;;;;;;;;;;43.00;4.70;;;;;;5030819;28;19985;-64
2021/08/11 09:34:50;;;;;;;;;;;41.80;2.90;;;;;;5032288;28;20488;-64
2021/08/11 09:37:16;;;;;;;;;;;39.80;1.00;;;;;;5031848;28;20168;-65
2021/08/11 09:39:42;;;;;;;;;;;40.90;3.70;;;;;;5031893;28;19932;-65
2021/08/11 09:42:07;;;;;;;;;;;40.40;4.30;;;;;;5031509;28;20378;-64
2021/08/11 09:44:34;;;;;;;;;;;40.20;4.10;;;;;;5031496;28;19932;-65
2021/08/11 09:47:17;;;;;;;;;;;41.00;5.50;;;;;;5031902;28;19954;-64
2021/08/11 09:49:58;;;;;;;;;;;41.10;4.60;;;;;;5031624;28;19964;-65
2021/08/11 09:52:23;;;;;;;;;;;40.70;4.60;;;;;;5032246;28;19932;-65
2021/08/11 09:54:56;;;;;;;;;;;42.90;6.90;;;;;;5031692;28;20333;-64
2021/08/11 09:57:28;;;;;;;;;;;44.10;16.50;;;;;;5030167;28;19958;-65
2021/08/11 09:59:55;;;;;;;;;;;45.40;6.80;;;;;;5031058;28;20038;-65
2021/08/11 10:02:21;;;;;;;;;;;46.10;4.90;;;;;;5029638;28;19909;-65
2021/08/11 10:04:47;;;;;;;;;;;47.30;4.70;;;;;;5031266;28;19936;-64
2021/08/11 10:07:12;;;;;;;;;;;47.50;12.40;;;;;;5031790;28;19913;-66
2021/08/11 10:09:38;;;;;;;;;;;48.50;2.00;;;;;;5030817;28;19921;-65
2021/08/11 10:12:03;;;;;;;;;;;47.60;1.00;;;;;;5030324;28;19920;-64
2021/08/11 10:14:29;;;;;;;;;;;47.10;1.00;;;;;;5030683;28;19920;-64
2021/08/11 10:16:56;;;;;;;;;;;45.90;1.00;;;;;;5031625;28;19909;-64
2021/08/11 10:19:26;;;;;;;;;;;45.00;1.00;;;;;;5029716;28;19932;-65
2021/08/11 10:22:02;;;;;;;;;;;45.50;1.00;;;;;;5032165;28;19909;-65
2021/08/11 10:24:28;;;;;;;;;;;44.90;1.00;;;;;;5030969;28;20004;-65
2021/08/11 10:26:54;;;;;;;;;;;45.20;1.00;;;;;;5031266;28;19999;-65
2021/08/11 10:29:20;;;;;;;;;;;44.50;1.00;;;;;;5030610;28;20000;-65
2021/08/11 10:31:46;;;;;;;;;;;45.50;1.00;;;;;;5031212;28;19935;-64
2021/08/11 10:34:12;;;;;;;;;;;46.50;1.00;;;;;;5031188;28;19909;-65
2021/08/11 10:36:41;;;;;;;;;;;47.20;1.00;;;;;;5032068;28;19924;-65
2021/08/11 10:39:06;;;;;;;;;;;47.50;1.00;;;;;;5034224;28;20301;-65
2021/08/11 10:41:33;;;;;;;;;;;47.60;1.00;;;;;;5035159;28;19909;-65
2021/08/11 10:43:59;;;;;;;;;;;47.50;1.00;;;;;;5034974;28;19910;-65
2021/08/11 10:46:36;;;;;;;;;;;47.30;1.00;;;;;;5034672;28;20397;-65
2021/08/11 10:49:05;;;;;;;;;;;47.50;1.00;;;;;;5034421;28;19964;-65
2021/08/11 10:51:38;;;;;;;;;;;47.90;1.00;;;;;;5035353;28;20282;-65
2021/08/11 10:54:04;;;;;;;;;;;47.40;1.00;;;;;;5035284;28;20366;-65
2021/08/11 10:56:50;;;;;;;;;;;47.00;1.00;;;;;;5034360;28;20394;-64
2021/08/11 10:59:22;;;;;;;;;;;45.60;1.00;;;;;;5032155;28;19973;-64
2021/08/11 11:01:56;;;;;;;;;;;43.90;1.00;;;;;;5035610;28;19913;-64
2021/08/11 11:04:38;;;;;;;;;;;42.50;1.00;;;;;;5034963;28;20410;-64
2021/08/11 11:07:13;;;;;;;;;;;40.90;1.00;;;;;;5035424;28;19924;-64
2021/08/11 11:09:43;;;;;;;;;;;39.90;1.00;;;;;;5034379;28;19909;-64
2021/08/11 11:12:17;;;;;;;;;;;40.40;1.00;;;;;;5035560;28;19909;-64
2021/08/11 11:14:54;;;;;;;;;;;41.10;1.00;;;;;;5034058;28;20366;-65
2021/08/11 11:17:20;;;;;;;;;;;41.80;1.00;;;;;;5033951;28;19914;-64
2021/08/11 11:20:08;;;;;;;;;;;41.70;1.00;;;;;;5034904;28;19936;-64
2021/08/11 11:22:34;;;;;;;;;;;41.70;1.00;;;;;;5034256;28;19996;-65
2021/08/11 11:24:59;;;;;;;;;;;42.20;1.00;;;;;;5035038;28;19909;-65
2021/08/11 11:27:56;;;;;;;;;;;42.70;1.00;;;;;;5033252;28;19913;-65
2021/08/11 11:30:27;;;;;;;;;;;42.80;1.00;;;;;;5033363;28;19921;-65
2021/08/11 11:33:14;;;;;;;;;;;42.50;1.00;;;;;;5033815;28;19913;-64
2021/08/11 11:35:40;;;;;;;;;;;42.40;1.00;;;;;;5034980;28;19913;-65
2021/08/11 11:38:07;;;;;;;;;;;41.70;1.00;;;;;;5033723;28;19910;-64
2021/08/11 11:40:33;;;;;;;;;;;41.30;1.00;;;;;;5034273;28;19909;-65
2021/08/11 11:43:17;;;;;;;;;;;41.10;1.00;;;;;;5035357;28;20388;-64
2021/08/11 11:45:43;;;;;;;;;;;40.50;1.00;;;;;;5034060;28;20289;-64
2021/08/11 11:48:09;;;;;;;;;;;39.80;1.00;;;;;;5034514;28;20012;-64
2021/08/11 11:50:41;;;;;;;;;;;39.30;1.00;;;;;;5031906;28;19998;-64
2021/08/11 11:53:07;;;;;;;;;;;38.80;1.00;;;;;;5033507;28;19913;-64
2021/08/11 11:55:38;;;;;;;;;;;38.20;1.00;;;;;;5033435;28;20282;-64
2021/08/11 11:58:17;;;;;;;;;;;37.70;1.00;;;;;;5032286;28;19931;-64
2021/08/11 12:00:44;;;;;;;;;;;37.50;1.00;;;;;;5033392;28;19916;-64
2021/08/11 12:03:10;;;;;;;;;;;37.80;1.00;;;;;;5033674;28;20312;-64
2021/08/11 12:05:46;;;;;;;;;;;37.60;1.00;;;;;;5033469;28;19916;-63
2021/08/11 12:08:13;;;;;;;;;;;36.90;1.00;;;;;;5032110;28;19913;-64
2021/08/11 12:10:39;;;;;;;;;;;36.50;1.00;;;;;;5033849;28;19909;-64
2021/08/11 12:13:05;;;;;;;;;;;36.40;1.00;;;;;;5033036;28;19913;-64
2021/08/11 12:15:41;;;;;;;;;;;36.40;1.00;;;;;;5032562;28;20271;-64
2021/08/11 12:18:12;;;;;;;;;;;36.30;2.10;;;;;;5033832;28;19935;-64
2021/08/11 12:20:38;;;;;;;;;;;35.70;2.70;;;;;;5033261;28;20354;-63
2021/08/11 12:23:22;;;;;;;;;;;35.70;4.60;;;;;;5032951;28;19940;-63
2021/08/11 12:25:49;;;;;;;;;;;35.80;5.60;;;;;;5033566;28;20011;-64
2021/08/11 12:28:19;;;;;;;;;;;35.80;6.60;;;;;;5031824;28;19920;-64
2021/08/11 12:30:57;;;;;;;;;;;35.60;7.00;;;;;;5055292;22;19925;-68
2021/08/11 12:33:24;;;;;;;;;;;35.40;9.20;;;;;;5032183;28;19913;-68
2021/08/11 12:35:51;;;;;;;;;;;35.20;9.00;;;;;;5032160;28;20400;-68
2021/08/11 12:38:26;;;;;;;;;;;35.00;9.60;;;;;;5031968;28;19974;-68
2021/08/11 12:40:53;;;;;;;;;;;34.90;10.60;;;;;;5032438;28;20698;-68
2021/08/11 12:43:18;;;;;;;;;;;34.80;12.20;;;;;;5031684;28;19913;-68
2021/08/11 12:45:50;;;;;;;;;;;34.60;12.40;;;;;;5032562;28;20076;-67
2021/08/11 12:48:26;;;;;;;;;;;34.40;13.30;;;;;;5031188;28;19922;-68
2021/08/11 12:50:53;;;;;;;;;;;34.30;14.80;;;;;;5032160;28;20364;-67
2021/08/11 12:53:29;;;;;;;;;;;34.20;16.30;;;;;;5031679;28;19922;-67
2021/08/11 12:56:08;;;;;;;;;;;33.80;16.70;;;;;;5031969;28;19909;-67
2021/08/11 12:58:53;;;;;;;;;;;33.50;18.40;;;;;;5031006;28;20000;-67
2021/08/11 13:01:54;;;;;;;;;;;33.30;19.40;;;;;;5031236;28;19917;-67
2021/08/11 13:04:23;;;;;;;;;;;33.00;20.90;;;;;;4989943;28;19918;-68
2021/08/11 13:06:49;;;;;;;;;;;32.70;21.60;;;;;;5023570;28;19955;-67
2021/08/11 13:09:28;;;;;;;;;;;32.60;23.00;;;;;;5030292;28;19924;-67
2021/08/11 13:11:54;;;;;;;;;;;32.50;24.10;;;;;;5031831;28;19909;-67
2021/08/11 13:14:38;;;;;;;;;;;32.40;25.30;;;;;;5031135;28;19959;-67
2021/08/11 13:17:04;;;;;;;;;;;32.20;26.80;;;;;;5031463;28;19979;-67
2021/08/11 13:19:30;;;;;;;;;;;32.10;27.50;;;;;;5030484;28;19917;-68
2021/08/11 13:21:55;;;;;;;;;;;31.80;28.90;;;;;;5031322;28;19944;-68
2021/08/11 13:24:23;;;;;;;;;;;31.80;28.50;;;;;;5031339;28;20013;-68
2021/08/11 13:26:54;;;;;;;;;;;32.20;30.10;;;;;;5031534;28;20035;-67
2021/08/11 13:29:23;;;;;;;;;;;32.40;30.90;;;;;;5029946;28;20061;-67
2021/08/11 13:31:48;;;;;;;;;;;32.70;31.90;;;;;;5031472;28;20341;-67
2021/08/11 13:34:14;;;;;;;;;;;32.80;33.00;;;;;;5030867;28;20004;-67
2021/08/11 13:36:39;;;;;;;;;;;32.50;32.40;;;;;;5031140;28;19910;-68
2021/08/11 13:39:05;;;;;;;;;;;32.20;33.60;;;;;;5030388;28;19909;-67
2021/08/11 13:41:32;;;;;;;;;;;32.20;34.70;;;;;;5029934;28;21260;-68
2021/08/11 13:43:57;;;;;;;;;;;32.10;35.00;;;;;;5030628;28;19909;-67
2021/08/11 13:46:23;;;;;;;;;;;32.00;35.20;;;;;;5030983;28;20004;-68
2021/08/11 13:48:48;;;;;;;;;;;32.00;35.50;;;;;;5030130;28;20012;-68
2021/08/11 13:51:14;;;;;;;;;;;32.00;35.40;;;;;;5031284;28;20401;-67
2021/08/11 13:53:39;;;;;;;;;;;31.90;35.80;;;;;;5030397;28;19971;-67
2021/08/11 13:56:08;;;;;;;;;;;31.80;36.00;;;;;;5030920;28;19916;-67
2021/08/11 13:58:34;;;;;;;;;;;31.70;36.50;;;;;;5029538;28;19909;-67
2021/08/11 14:01:00;;;;;;;;;;;31.60;37.30;;;;;;5030886;28;19999;-67
2021/08/11 14:03:25;;;;;;;;;;;31.40;37.00;;;;;;5030631;28;19909;-67
2021/08/11 14:05:51;;;;;;;;;;;31.20;38.00;;;;;;5030493;28;19913;-68
2021/08/11 14:08:16;;;;;;;;;;;31.20;38.90;;;;;;5030322;28;19913;-67
2021/08/11 14:10:42;;;;;;;;;;;31.10;40.00;;;;;;5031065;28;19988;-68
2021/08/11 14:13:07;;;;;;;;;;;31.10;40.80;;;;;;5029322;28;19909;-67
2021/08/11 14:15:33;;;;;;;;;;;31.00;40.90;;;;;;5030810;28;19909;-67
2021/08/11 14:17:59;;;;;;;;;;;30.80;42.10;;;;;;5029886;28;20278;-67
2021/08/11 14:20:25;;;;;;;;;;;30.60;43.10;;;;;;5030732;28;19909;-67
2021/08/11 14:22:50;;;;;;;;;;;30.60;44.50;;;;;;5030041;28;19915;-68
2021/08/11 14:25:16;;;;;;;;;;;30.60;46.20;;;;;;5030936;28;19913;-67